sensor_id;sensor_type;location;lat;lon;timestamp;temperature;humidity
26947;DHT22;14501;52.282;10.560;2023-02-15T00:01:45;0.00;99.90
26947;DHT22;14501;52.282;10.560;2023-02-15T00:04:17;0.10;99.90
26947;DHT22;14501;52.282;10.560;2023-02-15T00:06:43;0.10;99.90
26947;DHT22;14501;52.282;10.560;2023-02-15T00:09:09;0.00;99.90
26947;DHT22;14501;52.282;10.560;2023-02-15T00:11:35;0.00;99.90
26947;DHT22;14501;52.282;10.560;2023-02-15T00:14:19;0.10;99.90
26947;DHT22;14501;52.282;10.560;2023-02-15T00:16:46;0.10;99.90
26947;DHT22;14501;52.282;10.560;2023-02-15T00:19:14;0.00;99.90
26947;DHT22;14501;52.282;10.560;2023-02-15T00:21:40;0.00;99.90
26947;DHT22;14501;52.282;10.560;2023-02-15T00:24:11;0.10;99.90
26947;DHT22;14501;52.282;10.560;2023-02-15T00:26:38;0.10;99.90
26947;DHT22;14501;52.282;10.560;2023-02-15T00:29:05;0.10;99.90
26947;DHT22;14501;52.282;10.560;2023-02-15T00:31:32;0.10;99.90
26947;DHT22;14501;52.282;10.560;2023-02-15T00:34:06;0.10;99.90
26947;DHT22;14501;52.282;10.560;2023-02-15T00:36:32;0.20;99.90
26947;DHT22;14501;52.282;10.560;2023-02-15T00:38:57;0.20;99.90
26947;DHT22;14501;52.282;10.560;2023-02-15T00:41:23;0.80;99.90
26947;DHT22;14501;52.282;10.560;2023-02-15T00:43:49;0.30;99.90
26947;DHT22;14501;52.282;10.560;2023-02-15T00:46:15;0.30;99.90
26947;DHT22;14501;52.282;10.560;2023-02-15T00:48:40;0.30;99.90
26947;DHT22;14501;52.282;10.560;2023-02-15T00:51:06;0.30;99.90
26947;DHT22;14501;52.282;10.560;2023-02-15T00:53:32;0.30;99.90
26947;DHT22;14501;52.282;10.560;2023-02-15T00:55:58;0.20;99.90
26947;DHT22;14501;52.282;10.560;2023-02-15T00:58:24;0.30;99.90
26947;DHT22;14501;52.282;10.560;2023-02-15T01:00:50;0.20;99.90
26947;DHT22;14501;52.282;10.560;2023-02-15T01:03:18;0.20;99.90
26947;DHT22;14501;52.282;10.560;2023-02-15T01:05:45;0.20;99.90
26947;DHT22;14501;52.282;10.560;2023-02-15T01:08:11;0.20;99.90
26947;DHT22;14501;52.282;10.560;2023-02-15T01:10:37;0.20;99.90
26947;DHT22;14501;52.282;10.560;2023-02-15T01:13:03;0.10;99.90
26947;DHT22;14501;52.282;10.560;2023-02-15T01:15:29;0.10;99.90
26947;DHT22;14501;52.282;10.560;2023-02-15T01:17:55;0.10;99.90
26947;DHT22;14501;52.282;10.560;2023-02-15T01:20:23;0.00;99.90
26947;DHT22;14501;52.282;10.560;2023-02-15T01:22:49;0.00;99.90
26947;DHT22;14501;52.282;10.560;2023-02-15T01:25:20;0.00;99.90
26947;DHT22;14501;52.282;10.560;2023-02-15T01:27:46;-0.10;99.90
26947;DHT22;14501;52.282;10.560;2023-02-15T01:30:13;-0.10;99.90
26947;DHT22;14501;52.282;10.560;2023-02-15T01:32:39;-0.10;99.90
26947;DHT22;14501;52.282;10.560;2023-02-15T01:35:05;-0.10;99.90
26947;DHT22;14501;52.282;10.560;2023-02-15T01:37:32;-0.10;99.90
26947;DHT22;14501;52.282;10.560;2023-02-15T01:39:58;-0.20;99.90
26947;DHT22;14501;52.282;10.560;2023-02-15T01:42:27;-0.30;99.90
26947;DHT22;14501;52.282;10.560;2023-02-15T01:44:58;-0.20;99.90
26947;DHT22;14501;52.282;10.560;2023-02-15T01:47:47;-0.20;99.90
26947;DHT22;14501;52.282;10.560;2023-02-15T01:55:47;-0.40;99.90
26947;DHT22;14501;52.282;10.560;2023-02-15T01:58:16;-0.40;99.90
26947;DHT22;14501;52.282;10.560;2023-02-15T02:00:43;-0.50;99.90
26947;DHT22;14501;52.282;10.560;2023-02-15T02:03:09;-0.50;99.90
26947;DHT22;14501;52.282;10.560;2023-02-15T02:05:35;-0.60;99.90
26947;DHT22;14501;52.282;10.560;2023-02-15T02:08:03;-0.60;99.90
26947;DHT22;14501;52.282;10.560;2023-02-15T02:10:28;0.60;99.90
26947;DHT22;14501;52.282;10.560;2023-02-15T02:12:58;-0.60;99.90
26947;DHT22;14501;52.282;10.560;2023-02-15T02:15:37;-0.60;99.90
26947;DHT22;14501;52.282;10.560;2023-02-15T02:18:28;-0.50;99.90
26947;DHT22;14501;52.282;10.560;2023-02-15T02:21:12;-0.60;99.90
26947;DHT22;14501;52.282;10.560;2023-02-15T02:23:51;-0.50;99.90
26947;DHT22;14501;52.282;10.560;2023-02-15T02:41:00;-0.30;99.90
26947;DHT22;14501;52.282;10.560;2023-02-15T02:47:09;-0.20;99.90
26947;DHT22;14501;52.282;10.560;2023-02-15T02:49:41;-0.40;99.90
26947;DHT22;14501;52.282;10.560;2023-02-15T02:55:03;0.00;99.90
26947;DHT22;14501;52.282;10.560;2023-02-15T02:57:32;0.00;99.90
26947;DHT22;14501;52.282;10.560;2023-02-15T03:00:02;0.00;99.90
26947;DHT22;14501;52.282;10.560;2023-02-15T03:02:32;0.00;99.90
26947;DHT22;14501;52.282;10.560;2023-02-15T03:05:08;-0.10;99.90
26947;DHT22;14501;52.282;10.560;2023-02-15T03:07:35;0.00;99.90
26947;DHT22;14501;52.282;10.560;2023-02-15T03:10:04;-0.10;99.90
26947;DHT22;14501;52.282;10.560;2023-02-15T03:12:35;-0.10;99.90
26947;DHT22;14501;52.282;10.560;2023-02-15T03:15:18;-0.10;99.90
26947;DHT22;14501;52.282;10.560;2023-02-15T03:17:47;-0.10;99.90
26947;DHT22;14501;52.282;10.560;2023-02-15T03:20:24;-0.20;99.90
26947;DHT22;14501;52.282;10.560;2023-02-15T03:22:56;-0.30;99.90
26947;DHT22;14501;52.282;10.560;2023-02-15T03:25:40;-0.40;99.90
26947;DHT22;14501;52.282;10.560;2023-02-15T03:28:09;-0.40;99.90
26947;DHT22;14501;52.282;10.560;2023-02-15T03:30:38;-0.50;99.90
26947;DHT22;14501;52.282;10.560;2023-02-15T03:33:05;-0.50;99.90
26947;DHT22;14501;52.282;10.560;2023-02-15T03:35:50;-0.50;99.90
26947;DHT22;14501;52.282;10.560;2023-02-15T03:38:21;-0.70;99.90
26947;DHT22;14501;52.282;10.560;2023-02-15T03:40:53;-0.60;99.90
26947;DHT22;14501;52.282;10.560;2023-02-15T03:43:59;-0.60;99.90
26947;DHT22;14501;52.282;10.560;2023-02-15T03:46:47;-0.60;99.90
26947;DHT22;14501;52.282;10.560;2023-02-15T03:51:50;-0.40;99.90
26947;DHT22;14501;52.282;10.560;2023-02-15T03:54:22;-0.70;99.90
26947;DHT22;14501;52.282;10.560;2023-02-15T03:57:12;-0.80;99.90
26947;DHT22;14501;52.282;10.560;2023-02-15T03:59:58;-0.80;99.90
26947;DHT22;14501;52.282;10.560;2023-02-15T04:03:08;-0.80;99.90
26947;DHT22;14501;52.282;10.560;2023-02-15T04:05:35;-0.90;99.90
26947;DHT22;14501;52.282;10.560;2023-02-15T04:08:01;-0.90;99.90
26947;DHT22;14501;52.282;10.560;2023-02-15T04:10:27;-0.90;99.90
26947;DHT22;14501;52.282;10.560;2023-02-15T04:13:11;-0.90;99.90
26947;DHT22;14501;52.282;10.560;2023-02-15T04:15:36;-0.90;99.90
26947;DHT22;14501;52.282;10.560;2023-02-15T04:18:21;-0.40;99.90
26947;DHT22;14501;52.282;10.560;2023-02-15T04:20:46;-0.90;99.90
26947;DHT22;14501;52.282;10.560;2023-02-15T04:23:31;-0.90;99.90
26947;DHT22;14501;52.282;10.560;2023-02-15T04:26:16;-0.90;99.90
26947;DHT22;14501;52.282;10.560;2023-02-15T04:28:41;-0.90;99.90
26947;DHT22;14501;52.282;10.560;2023-02-15T04:31:07;-0.90;99.90
26947;DHT22;14501;52.282;10.560;2023-02-15T04:33:33;-1.00;99.90
26947;DHT22;14501;52.282;10.560;2023-02-15T04:35:59;-1.00;99.90
26947;DHT22;14501;52.282;10.560;2023-02-15T04:38:25;0.60;99.90
26947;DHT22;14501;52.282;10.560;2023-02-15T04:40:51;-1.10;99.90
26947;DHT22;14501;52.282;10.560;2023-02-15T04:43:18;-1.10;99.90
26947;DHT22;14501;52.282;10.560;2023-02-15T04:45:51;-1.00;99.90
26947;DHT22;14501;52.282;10.560;2023-02-15T04:48:17;-1.10;99.90
26947;DHT22;14501;52.282;10.560;2023-02-15T04:50:44;-1.10;99.90
26947;DHT22;14501;52.282;10.560;2023-02-15T04:53:10;-1.10;99.90
26947;DHT22;14501;52.282;10.560;2023-02-15T04:55:36;2.30;99.90
26947;DHT22;14501;52.282;10.560;2023-02-15T04:58:01;-1.10;99.90
26947;DHT22;14501;52.282;10.560;2023-02-15T05:00:27;-1.20;99.90
26947;DHT22;14501;52.282;10.560;2023-02-15T05:02:52;-1.00;99.90
26947;DHT22;14501;52.282;10.560;2023-02-15T05:05:18;-1.10;99.90
26947;DHT22;14501;52.282;10.560;2023-02-15T05:07:44;-1.10;99.90
26947;DHT22;14501;52.282;10.560;2023-02-15T05:10:10;-1.10;99.90
26947;DHT22;14501;52.282;10.560;2023-02-15T05:12:35;-1.10;99.90
26947;DHT22;14501;52.282;10.560;2023-02-15T05:15:01;-1.30;99.90
26947;DHT22;14501;52.282;10.560;2023-02-15T05:17:27;-1.10;99.90
26947;DHT22;14501;52.282;10.560;2023-02-15T05:19:52;-1.20;99.90
26947;DHT22;14501;52.282;10.560;2023-02-15T05:22:18;-1.10;99.90
26947;DHT22;14501;52.282;10.560;2023-02-15T05:24:43;-1.20;99.90
26947;DHT22;14501;52.282;10.560;2023-02-15T05:27:27;-1.20;99.90
26947;DHT22;14501;52.282;10.560;2023-02-15T05:30:12;-1.10;99.90
26947;DHT22;14501;52.282;10.560;2023-02-15T05:32:38;-1.10;99.90
26947;DHT22;14501;52.282;10.560;2023-02-15T05:35:06;-1.10;99.90
26947;DHT22;14501;52.282;10.560;2023-02-15T05:39:57;-1.10;99.90
26947;DHT22;14501;52.282;10.560;2023-02-15T05:42:23;-1.20;99.90
26947;DHT22;14501;52.282;10.560;2023-02-15T05:44:48;-1.10;99.90
26947;DHT22;14501;52.282;10.560;2023-02-15T05:47:14;-1.20;99.90
26947;DHT22;14501;52.282;10.560;2023-02-15T05:49:40;-1.20;99.90
26947;DHT22;14501;52.282;10.560;2023-02-15T05:52:05;-1.20;99.90
26947;DHT22;14501;52.282;10.560;2023-02-15T05:54:31;-1.20;99.90
26947;DHT22;14501;52.282;10.560;2023-02-15T05:56:57;-1.20;99.90
26947;DHT22;14501;52.282;10.560;2023-02-15T05:59:22;-1.20;99.90
26947;DHT22;14501;52.282;10.560;2023-02-15T06:01:48;-1.30;99.90
26947;DHT22;14501;52.282;10.560;2023-02-15T06:04:13;-1.20;99.90
26947;DHT22;14501;52.282;10.560;2023-02-15T06:06:39;-1.30;99.90
26947;DHT22;14501;52.282;10.560;2023-02-15T06:09:05;-1.30;99.90
26947;DHT22;14501;52.282;10.560;2023-02-15T06:13:56;-1.30;99.90
26947;DHT22;14501;52.282;10.560;2023-02-15T06:16:22;-1.50;99.90
26947;DHT22;14501;52.282;10.560;2023-02-15T06:18:48;0.00;99.90
26947;DHT22;14501;52.282;10.560;2023-02-15T06:21:13;-1.50;99.90
26947;DHT22;14501;52.282;10.560;2023-02-15T06:23:39;-1.50;99.90
26947;DHT22;14501;52.282;10.560;2023-02-15T06:26:05;-1.50;99.90
26947;DHT22;14501;52.282;10.560;2023-02-15T06:28:30;-1.50;99.90
26947;DHT22;14501;52.282;10.560;2023-02-15T06:30:56;-1.80;99.90
26947;DHT22;14501;52.282;10.560;2023-02-15T06:33:22;-1.50;99.90
26947;DHT22;14501;52.282;10.560;2023-02-15T06:38:14;-1.50;99.90
26947;DHT22;14501;52.282;10.560;2023-02-15T06:40:39;-1.50;99.90
26947;DHT22;14501;52.282;10.560;2023-02-15T06:43:05;-1.50;99.90
26947;DHT22;14501;52.282;10.560;2023-02-15T06:45:31;-1.40;99.90
26947;DHT22;14501;52.282;10.560;2023-02-15T06:47:57;-1.30;99.90
26947;DHT22;14501;52.282;10.560;2023-02-15T06:50:22;-1.30;99.90
26947;DHT22;14501;52.282;10.560;2023-02-15T06:52:48;-1.30;99.90
26947;DHT22;14501;52.282;10.560;2023-02-15T06:55:13;-1.40;99.90
26947;DHT22;14501;52.282;10.560;2023-02-15T06:57:39;-1.40;99.90
26947;DHT22;14501;52.282;10.560;2023-02-15T07:00:05;-1.40;99.90
26947;DHT22;14501;52.282;10.560;2023-02-15T07:02:32;-1.30;99.90
26947;DHT22;14501;52.282;10.560;2023-02-15T07:04:57;-1.20;99.90
26947;DHT22;14501;52.282;10.560;2023-02-15T07:07:23;-1.40;99.90
26947;DHT22;14501;52.282;10.560;2023-02-15T07:09:48;-1.30;99.90
26947;DHT22;14501;52.282;10.560;2023-02-15T07:12:14;-1.20;99.90
26947;DHT22;14501;52.282;10.560;2023-02-15T07:14:58;-1.10;99.90
26947;DHT22;14501;52.282;10.560;2023-02-15T07:17:24;-1.10;99.90
26947;DHT22;14501;52.282;10.560;2023-02-15T07:19:54;-1.20;99.90
26947;DHT22;14501;52.282;10.560;2023-02-15T07:22:21;-1.10;99.90
26947;DHT22;14501;52.282;10.560;2023-02-15T07:24:47;-1.00;99.90
26947;DHT22;14501;52.282;10.560;2023-02-15T07:29:40;-0.90;99.90
26947;DHT22;14501;52.282;10.560;2023-02-15T07:32:05;-0.90;99.90
26947;DHT22;14501;52.282;10.560;2023-02-15T07:34:31;-0.80;99.90
26947;DHT22;14501;52.282;10.560;2023-02-15T07:36:57;-0.80;99.90
26947;DHT22;14501;52.282;10.560;2023-02-15T07:39:23;-0.80;99.90
26947;DHT22;14501;52.282;10.560;2023-02-15T07:41:48;0.40;99.90
26947;DHT22;14501;52.282;10.560;2023-02-15T07:44:14;-0.20;99.90
26947;DHT22;14501;52.282;10.560;2023-02-15T07:46:40;-0.50;99.90
26947;DHT22;14501;52.282;10.560;2023-02-15T07:49:06;-0.50;99.90
26947;DHT22;14501;52.282;10.560;2023-02-15T07:51:32;-0.30;99.90
26947;DHT22;14501;52.282;10.560;2023-02-15T07:53:58;0.00;99.90
26947;DHT22;14501;52.282;10.560;2023-02-15T07:58:49;-0.10;99.90
26947;DHT22;14501;52.282;10.560;2023-02-15T08:01:21;-0.10;99.90
26947;DHT22;14501;52.282;10.560;2023-02-15T08:03:47;0.10;99.90
26947;DHT22;14501;52.282;10.560;2023-02-15T08:08:40;0.10;99.90
26947;DHT22;14501;52.282;10.560;2023-02-15T08:14:09;0.30;99.90
26947;DHT22;14501;52.282;10.560;2023-02-15T08:16:45;0.40;99.90
26947;DHT22;14501;52.282;10.560;2023-02-15T08:19:24;0.50;99.90
26947;DHT22;14501;52.282;10.560;2023-02-15T08:24:21;0.60;99.90
26947;DHT22;14501;52.282;10.560;2023-02-15T08:26:48;0.70;99.90
26947;DHT22;14501;52.282;10.560;2023-02-15T08:29:18;0.70;99.90
26947;DHT22;14501;52.282;10.560;2023-02-15T08:31:44;0.80;99.90
26947;DHT22;14501;52.282;10.560;2023-02-15T08:34:13;1.50;99.90
26947;DHT22;14501;52.282;10.560;2023-02-15T08:36:39;1.50;99.90
26947;DHT22;14501;52.282;10.560;2023-02-15T08:39:06;3.70;99.90
26947;DHT22;14501;52.282;10.560;2023-02-15T08:41:34;5.70;99.90
26947;DHT22;14501;52.282;10.560;2023-02-15T08:44:02;8.70;99.90
26947;DHT22;14501;52.282;10.560;2023-02-15T08:46:31;8.80;99.90
26947;DHT22;14501;52.282;10.560;2023-02-15T08:48:57;10.40;99.90
26947;DHT22;14501;52.282;10.560;2023-02-15T08:51:25;11.50;99.90
26947;DHT22;14501;52.282;10.560;2023-02-15T08:53:53;12.40;99.90
26947;DHT22;14501;52.282;10.560;2023-02-15T08:56:22;13.40;99.90
26947;DHT22;14501;52.282;10.560;2023-02-15T08:58:48;14.10;99.90
26947;DHT22;14501;52.282;10.560;2023-02-15T09:01:19;15.10;99.90
26947;DHT22;14501;52.282;10.560;2023-02-15T09:03:50;16.00;99.90
26947;DHT22;14501;52.282;10.560;2023-02-15T09:06:18;16.90;99.90
26947;DHT22;14501;52.282;10.560;2023-02-15T09:08:44;17.60;99.90
26947;DHT22;14501;52.282;10.560;2023-02-15T09:11:14;18.40;99.90
26947;DHT22;14501;52.282;10.560;2023-02-15T09:13:47;19.00;99.90
26947;DHT22;14501;52.282;10.560;2023-02-15T09:16:14;19.70;99.90
26947;DHT22;14501;52.282;10.560;2023-02-15T09:18:42;20.10;99.90
26947;DHT22;14501;52.282;10.560;2023-02-15T09:21:13;20.40;99.90
26947;DHT22;14501;52.282;10.560;2023-02-15T09:23:40;20.90;98.60
26947;DHT22;14501;52.282;10.560;2023-02-15T09:26:13;21.20;98.10
26947;DHT22;14501;52.282;10.560;2023-02-15T09:28:40;21.60;97.80
26947;DHT22;14501;52.282;10.560;2023-02-15T09:33:33;22.30;96.40
26947;DHT22;14501;52.282;10.560;2023-02-15T09:36:00;22.70;95.50
26947;DHT22;14501;52.282;10.560;2023-02-15T09:46:48;23.40;92.30
26947;DHT22;14501;52.282;10.560;2023-02-15T09:49:33;23.50;90.80
26947;DHT22;14501;52.282;10.560;2023-02-15T09:55:09;23.50;89.70
26947;DHT22;14501;52.282;10.560;2023-02-15T10:28:13;18.50;93.30
26947;DHT22;14501;52.282;10.560;2023-02-15T10:30:48;17.80;95.10
26947;DHT22;14501;52.282;10.560;2023-02-15T10:33:43;17.40;94.60
26947;DHT22;14501;52.282;10.560;2023-02-15T10:42:24;16.40;96.80
26947;DHT22;14501;52.282;10.560;2023-02-15T10:51:10;15.60;98.10
26947;DHT22;14501;52.282;10.560;2023-02-15T11:07:43;14.40;99.90
26947;DHT22;14501;52.282;10.560;2023-02-15T11:12:40;14.10;99.90
26947;DHT22;14501;52.282;10.560;2023-02-15T11:15:14;14.10;99.90
26947;DHT22;14501;52.282;10.560;2023-02-15T11:17:45;14.00;99.90
26947;DHT22;14501;52.282;10.560;2023-02-15T11:20:43;13.80;99.90
26947;DHT22;14501;52.282;10.560;2023-02-15T11:23:15;13.70;99.90
26947;DHT22;14501;52.282;10.560;2023-02-15T11:26:09;13.60;99.90
26947;DHT22;14501;52.282;10.560;2023-02-15T11:28:34;13.70;99.90
26947;DHT22;14501;52.282;10.560;2023-02-15T11:31:18;13.50;99.90
26947;DHT22;14501;52.282;10.560;2023-02-15T11:33:56;13.20;99.90
26947;DHT22;14501;52.282;10.560;2023-02-15T11:36:34;13.10;99.90
26947;DHT22;14501;52.282;10.560;2023-02-15T11:39:09;13.10;99.90
26947;DHT22;14501;52.282;10.560;2023-02-15T11:41:38;13.20;99.90
26947;DHT22;14501;52.282;10.560;2023-02-15T11:44:16;13.10;99.90
26947;DHT22;14501;52.282;10.560;2023-02-15T11:46:43;13.00;99.90
26947;DHT22;14501;52.282;10.560;2023-02-15T11:51:53;13.00;99.90
26947;DHT22;14501;52.282;10.560;2023-02-15T11:54:26;13.20;99.90
26947;DHT22;14501;52.282;10.560;2023-02-15T11:56:53;13.30;99.90
26947;DHT22;14501;52.282;10.560;2023-02-15T11:59:29;13.10;99.90
26947;DHT22;14501;52.282;10.560;2023-02-15T12:01:57;13.20;99.90
26947;DHT22;14501;52.282;10.560;2023-02-15T12:04:33;13.20;99.90
26947;DHT22;14501;52.282;10.560;2023-02-15T12:12:31;13.10;99.90
26947;DHT22;14501;52.282;10.560;2023-02-15T12:14:58;13.10;99.90
26947;DHT22;14501;52.282;10.560;2023-02-15T12:17:38;13.10;99.90
26947;DHT22;14501;52.282;10.560;2023-02-15T12:20:24;13.10;99.90
26947;DHT22;14501;52.282;10.560;2023-02-15T12:23:03;13.00;99.90
26947;DHT22;14501;52.282;10.560;2023-02-15T12:25:49;13.00;99.90
26947;DHT22;14501;52.282;10.560;2023-02-15T12:28:33;13.10;99.90
26947;DHT22;14501;52.282;10.560;2023-02-15T12:30:59;13.30;99.90
26947;DHT22;14501;52.282;10.560;2023-02-15T12:33:35;13.30;99.90
26947;DHT22;14501;52.282;10.560;2023-02-15T12:36:18;13.40;99.90
26947;DHT22;14501;52.282;10.560;2023-02-15T12:41:33;13.20;99.90
26947;DHT22;14501;52.282;10.560;2023-02-15T12:46:29;12.70;99.90
26947;DHT22;14501;52.282;10.560;2023-02-15T12:49:19;12.70;99.90
26947;DHT22;14501;52.282;10.560;2023-02-15T12:51:56;12.40;99.90
26947;DHT22;14501;52.282;10.560;2023-02-15T12:54:33;12.50;99.90
26947;DHT22;14501;52.282;10.560;2023-02-15T12:57:14;12.60;99.90
26947;DHT22;14501;52.282;10.560;2023-02-15T13:00:00;12.80;99.90
26947;DHT22;14501;52.282;10.560;2023-02-15T13:05:35;12.90;99.90
26947;DHT22;14501;52.282;10.560;2023-02-15T13:08:18;12.70;99.90
26947;DHT22;14501;52.282;10.560;2023-02-15T13:10:55;12.70;99.90
26947;DHT22;14501;52.282;10.560;2023-02-15T13:13:25;13.00;99.90
26947;DHT22;14501;52.282;10.560;2023-02-15T13:15:58;12.90;99.90
26947;DHT22;14501;52.282;10.560;2023-02-15T13:18:31;12.70;99.90
26947;DHT22;14501;52.282;10.560;2023-02-15T13:21:00;12.40;99.90
26947;DHT22;14501;52.282;10.560;2023-02-15T13:23:31;12.30;99.90
26947;DHT22;14501;52.282;10.560;2023-02-15T13:25:59;12.40;99.90
26947;DHT22;14501;52.282;10.560;2023-02-15T13:28:46;12.20;99.90
26947;DHT22;14501;52.282;10.560;2023-02-15T13:31:15;12.00;99.90
26947;DHT22;14501;52.282;10.560;2023-02-15T13:34:07;12.00;99.90
26947;DHT22;14501;52.282;10.560;2023-02-15T13:52:46;11.10;99.90
26947;DHT22;14501;52.282;10.560;2023-02-15T14:20:14;10.10;99.90
26947;DHT22;14501;52.282;10.560;2023-02-15T14:22:44;10.10;99.90
26947;DHT22;14501;52.282;10.560;2023-02-15T14:25:15;10.00;99.90
26947;DHT22;14501;52.282;10.560;2023-02-15T14:28:49;10.00;99.90
26947;DHT22;14501;52.282;10.560;2023-02-15T14:30:55;9.80;99.90
26947;DHT22;14501;52.282;10.560;2023-02-15T14:33:39;9.80;99.90
26947;DHT22;14501;52.282;10.560;2023-02-15T14:36:11;9.70;99.90
26947;DHT22;14501;52.282;10.560;2023-02-15T14:41:18;9.70;99.90
26947;DHT22;14501;52.282;10.560;2023-02-15T14:44:13;9.60;99.90
26947;DHT22;14501;52.282;10.560;2023-02-15T14:49:33;9.50;99.90
26947;DHT22;14501;52.282;10.560;2023-02-15T14:52:06;9.50;99.90
26947;DHT22;14501;52.282;10.560;2023-02-15T15:02:48;9.20;99.90
26947;DHT22;14501;52.282;10.560;2023-02-15T15:07:57;9.00;99.90
26947;DHT22;14501;52.282;10.560;2023-02-15T15:10:37;8.80;99.90
26947;DHT22;14501;52.282;10.560;2023-02-15T15:15:56;8.70;99.90
26947;DHT22;14501;52.282;10.560;2023-02-15T15:18:47;8.60;99.90
26947;DHT22;14501;52.282;10.560;2023-02-15T15:43:29;8.10;99.90
26947;DHT22;14501;52.282;10.560;2023-02-15T15:49:06;8.00;99.90
26947;DHT22;14501;52.282;10.560;2023-02-15T15:51:34;7.90;99.90
26947;DHT22;14501;52.282;10.560;2023-02-15T15:56:37;7.80;99.90
26947;DHT22;14501;52.282;10.560;2023-02-15T15:59:07;8.70;99.90
26947;DHT22;14501;52.282;10.560;2023-02-15T16:01:43;7.80;99.90
26947;DHT22;14501;52.282;10.560;2023-02-15T16:04:14;7.60;99.90
26947;DHT22;14501;52.282;10.560;2023-02-15T16:06:47;7.60;99.90
26947;DHT22;14501;52.282;10.560;2023-02-15T16:11:49;7.40;99.90
26947;DHT22;14501;52.282;10.560;2023-02-15T16:14:26;7.30;99.90
26947;DHT22;14501;52.282;10.560;2023-02-15T16:16:55;7.50;99.90
26947;DHT22;14501;52.282;10.560;2023-02-15T16:19:26;7.40;99.90
26947;DHT22;14501;52.282;10.560;2023-02-15T16:21:54;9.80;99.90
26947;DHT22;14501;52.282;10.560;2023-02-15T16:29:33;6.70;99.90
26947;DHT22;14501;52.282;10.560;2023-02-15T16:32:03;6.60;99.90
26947;DHT22;14501;52.282;10.560;2023-02-15T16:37:18;6.40;99.90
26947;DHT22;14501;52.282;10.560;2023-02-15T16:39:45;6.50;99.90
26947;DHT22;14501;52.282;10.560;2023-02-15T16:42:14;6.20;99.90
26947;DHT22;14501;52.282;10.560;2023-02-15T16:44:40;6.00;99.90
26947;DHT22;14501;52.282;10.560;2023-02-15T16:47:33;5.70;99.90
26947;DHT22;14501;52.282;10.560;2023-02-15T16:50:00;7.40;99.90
26947;DHT22;14501;52.282;10.560;2023-02-15T16:52:28;7.80;99.90
26947;DHT22;14501;52.282;10.560;2023-02-15T16:55:17;5.60;99.90
26947;DHT22;14501;52.282;10.560;2023-02-15T16:57:44;5.60;99.90
26947;DHT22;14501;52.282;10.560;2023-02-15T17:00:19;5.40;99.90
26947;DHT22;14501;52.282;10.560;2023-02-15T17:05:47;5.20;99.90
26947;DHT22;14501;52.282;10.560;2023-02-15T17:08:27;5.10;99.90
26947;DHT22;14501;52.282;10.560;2023-02-15T17:11:10;5.00;99.90
26947;DHT22;14501;52.282;10.560;2023-02-15T17:13:36;4.90;99.90
26947;DHT22;14501;52.282;10.560;2023-02-15T17:18:48;4.60;99.90
26947;DHT22;14501;52.282;10.560;2023-02-15T17:21:19;4.20;99.90
26947;DHT22;14501;52.282;10.560;2023-02-15T17:23:51;4.50;99.90
26947;DHT22;14501;52.282;10.560;2023-02-15T17:26:26;4.50;99.90
26947;DHT22;14501;52.282;10.560;2023-02-15T17:29:39;4.40;99.90
26947;DHT22;14501;52.282;10.560;2023-02-15T17:31:47;4.40;99.90
26947;DHT22;14501;52.282;10.560;2023-02-15T17:39:54;4.10;99.90
26947;DHT22;14501;52.282;10.560;2023-02-15T17:42:19;4.00;99.90
26947;DHT22;14501;52.282;10.560;2023-02-15T17:44:45;3.90;99.90
26947;DHT22;14501;52.282;10.560;2023-02-15T17:47:19;3.80;99.90
26947;DHT22;14501;52.282;10.560;2023-02-15T17:49:46;3.80;99.90
26947;DHT22;14501;52.282;10.560;2023-02-15T17:52:15;3.70;99.90
26947;DHT22;14501;52.282;10.560;2023-02-15T17:54:42;3.60;99.90
26947;DHT22;14501;52.282;10.560;2023-02-15T17:57:27;6.00;99.90
26947;DHT22;14501;52.282;10.560;2023-02-15T17:59:53;3.50;99.90
26947;DHT22;14501;52.282;10.560;2023-02-15T18:02:38;3.40;99.90
26947;DHT22;14501;52.282;10.560;2023-02-15T18:05:22;3.40;99.90
26947;DHT22;14501;52.282;10.560;2023-02-15T18:08:17;3.40;99.90
26947;DHT22;14501;52.282;10.560;2023-02-15T18:11:02;3.40;99.90
26947;DHT22;14501;52.282;10.560;2023-02-15T18:13:47;3.30;99.90
26947;DHT22;14501;52.282;10.560;2023-02-15T18:16:21;3.30;99.90
26947;DHT22;14501;52.282;10.560;2023-02-15T18:18:47;3.40;99.90
26947;DHT22;14501;52.282;10.560;2023-02-15T18:21:13;4.10;99.90
26947;DHT22;14501;52.282;10.560;2023-02-15T18:23:39;3.00;99.90
26947;DHT22;14501;52.282;10.560;2023-02-15T18:26:05;3.20;99.90
26947;DHT22;14501;52.282;10.560;2023-02-15T18:28:31;3.10;99.90
26947;DHT22;14501;52.282;10.560;2023-02-15T18:30:57;5.50;99.90
26947;DHT22;14501;52.282;10.560;2023-02-15T18:33:37;3.00;99.90
26947;DHT22;14501;52.282;10.560;2023-02-15T18:36:06;5.70;99.90
26947;DHT22;14501;52.282;10.560;2023-02-15T18:38:32;2.80;99.90
26947;DHT22;14501;52.282;10.560;2023-02-15T18:41:00;2.80;99.90
26947;DHT22;14501;52.282;10.560;2023-02-15T18:43:27;2.60;99.90
26947;DHT22;14501;52.282;10.560;2023-02-15T18:45:52;2.70;99.90
26947;DHT22;14501;52.282;10.560;2023-02-15T18:48:18;2.60;99.90
26947;DHT22;14501;52.282;10.560;2023-02-15T18:50:43;2.60;99.90
26947;DHT22;14501;52.282;10.560;2023-02-15T18:53:18;2.60;99.90
26947;DHT22;14501;52.282;10.560;2023-02-15T18:55:45;2.50;99.90
26947;DHT22;14501;52.282;10.560;2023-02-15T18:58:16;2.50;99.90
26947;DHT22;14501;52.282;10.560;2023-02-15T19:00:42;2.50;99.90
26947;DHT22;14501;52.282;10.560;2023-02-15T19:03:12;2.40;99.90
26947;DHT22;14501;52.282;10.560;2023-02-15T19:05:40;2.40;99.90
26947;DHT22;14501;52.282;10.560;2023-02-15T19:08:17;2.40;99.90
26947;DHT22;14501;52.282;10.560;2023-02-15T19:10:44;2.40;99.90
26947;DHT22;14501;52.282;10.560;2023-02-15T19:13:11;2.50;99.90
26947;DHT22;14501;52.282;10.560;2023-02-15T19:15:37;2.60;99.90
26947;DHT22;14501;52.282;10.560;2023-02-15T19:18:04;2.40;99.90
26947;DHT22;14501;52.282;10.560;2023-02-15T19:20:41;2.40;99.90
26947;DHT22;14501;52.282;10.560;2023-02-15T19:23:14;2.30;99.90
26947;DHT22;14501;52.282;10.560;2023-02-15T19:25:43;2.30;99.90
26947;DHT22;14501;52.282;10.560;2023-02-15T19:28:18;2.10;99.90
26947;DHT22;14501;52.282;10.560;2023-02-15T19:30:44;2.20;99.90
26947;DHT22;14501;52.282;10.560;2023-02-15T19:33:18;2.10;99.90
26947;DHT22;14501;52.282;10.560;2023-02-15T19:35:46;2.30;99.90
26947;DHT22;14501;52.282;10.560;2023-02-15T19:38:18;2.10;99.90
26947;DHT22;14501;52.282;10.560;2023-02-15T19:40:44;2.10;99.90
26947;DHT22;14501;52.282;10.560;2023-02-15T19:43:21;1.90;99.90
26947;DHT22;14501;52.282;10.560;2023-02-15T19:48:18;2.00;99.90
26947;DHT22;14501;52.282;10.560;2023-02-15T19:50:48;1.90;99.90
26947;DHT22;14501;52.282;10.560;2023-02-15T19:53:24;1.90;99.90
26947;DHT22;14501;52.282;10.560;2023-02-15T19:55:51;1.80;99.90
26947;DHT22;14501;52.282;10.560;2023-02-15T19:58:17;1.70;99.90